sensor_id;sensor_type;location;lat;lon;timestamp;P1;durP1;ratioP1;P2;durP2;ratioP2
53971;SDS011;40530;53.062;6.078;2023-09-19T00:00:33;11.30;;;2.55;;
53971;SDS011;40530;53.062;6.078;2023-09-19T00:03:00;21.48;;;2.28;;
53971;SDS011;40530;53.062;6.078;2023-09-19T00:05:28;14.93;;;2.22;;
53971;SDS011;40530;53.062;6.078;2023-09-19T00:07:55;11.75;;;2.40;;
53971;SDS011;40530;53.062;6.078;2023-09-19T00:10:24;15.52;;;2.50;;
53971;SDS011;40530;53.062;6.078;2023-09-19T00:12:52;16.40;;;2.25;;
53971;SDS011;40530;53.062;6.078;2023-09-19T00:15:23;15.80;;;3.00;;
53971;SDS011;40530;53.062;6.078;2023-09-19T00:17:49;14.10;;;2.63;;
53971;SDS011;40530;53.062;6.078;2023-09-19T00:20:17;11.20;;;2.25;;
53971;SDS011;40530;53.062;6.078;2023-09-19T00:22:43;11.75;;;2.05;;
53971;SDS011;40530;53.062;6.078;2023-09-19T00:25:10;11.27;;;1.70;;
53971;SDS011;40530;53.062;6.078;2023-09-19T00:27:40;18.27;;;2.55;;
53971;SDS011;40530;53.062;6.078;2023-09-19T00:30:08;10.70;;;2.65;;
53971;SDS011;40530;53.062;6.078;2023-09-19T00:32:44;17.15;;;2.22;;
53971;SDS011;40530;53.062;6.078;2023-09-19T00:35:12;12.85;;;2.40;;
53971;SDS011;40530;53.062;6.078;2023-09-19T00:37:39;9.82;;;2.75;;
53971;SDS011;40530;53.062;6.078;2023-09-19T00:40:06;10.05;;;3.05;;
53971;SDS011;40530;53.062;6.078;2023-09-19T00:42:34;12.10;;;3.50;;
53971;SDS011;40530;53.062;6.078;2023-09-19T00:45:03;12.07;;;2.28;;
53971;SDS011;40530;53.062;6.078;2023-09-19T00:47:30;11.27;;;2.50;;
53971;SDS011;40530;53.062;6.078;2023-09-19T00:49:56;11.00;;;2.42;;
53971;SDS011;40530;53.062;6.078;2023-09-19T00:52:24;12.38;;;2.30;;
53971;SDS011;40530;53.062;6.078;2023-09-19T00:54:50;13.50;;;1.88;;
53971;SDS011;40530;53.062;6.078;2023-09-19T00:57:17;11.20;;;2.85;;
53971;SDS011;40530;53.062;6.078;2023-09-19T00:59:44;7.13;;;1.70;;
53971;SDS011;40530;53.062;6.078;2023-09-19T01:02:10;7.88;;;2.17;;
53971;SDS011;40530;53.062;6.078;2023-09-19T01:04:39;12.77;;;2.67;;
53971;SDS011;40530;53.062;6.078;2023-09-19T01:07:05;12.15;;;2.03;;
53971;SDS011;40530;53.062;6.078;2023-09-19T01:09:33;11.82;;;1.88;;
53971;SDS011;40530;53.062;6.078;2023-09-19T01:12:00;13.02;;;2.30;;
53971;SDS011;40530;53.062;6.078;2023-09-19T01:14:44;8.73;;;2.10;;
53971;SDS011;40530;53.062;6.078;2023-09-19T01:17:42;9.20;;;2.55;;
53971;SDS011;40530;53.062;6.078;2023-09-19T01:22:53;11.93;;;3.45;;
53971;SDS011;40530;53.062;6.078;2023-09-19T01:28:14;14.85;;;2.17;;
53971;SDS011;40530;53.062;6.078;2023-09-19T01:30:45;8.75;;;1.98;;
53971;SDS011;40530;53.062;6.078;2023-09-19T01:33:12;9.02;;;1.90;;
53971;SDS011;40530;53.062;6.078;2023-09-19T01:35:39;6.80;;;1.50;;
53971;SDS011;40530;53.062;6.078;2023-09-19T01:38:06;12.15;;;2.47;;
53971;SDS011;40530;53.062;6.078;2023-09-19T01:40:34;7.50;;;1.38;;
53971;SDS011;40530;53.062;6.078;2023-09-19T01:50:40;17.45;;;2.22;;
53971;SDS011;40530;53.062;6.078;2023-09-19T01:53:14;13.75;;;2.25;;
53971;SDS011;40530;53.062;6.078;2023-09-19T01:55:42;15.30;;;2.47;;
53971;SDS011;40530;53.062;6.078;2023-09-19T01:58:25;14.60;;;2.40;;
53971;SDS011;40530;53.062;6.078;2023-09-19T02:00:53;6.50;;;1.17;;
53971;SDS011;40530;53.062;6.078;2023-09-19T02:03:20;13.70;;;2.00;;
53971;SDS011;40530;53.062;6.078;2023-09-19T02:05:51;13.55;;;2.10;;
53971;SDS011;40530;53.062;6.078;2023-09-19T02:08:18;13.57;;;1.70;;
53971;SDS011;40530;53.062;6.078;2023-09-19T02:10:45;11.43;;;2.45;;
53971;SDS011;40530;53.062;6.078;2023-09-19T02:13:17;9.73;;;1.30;;
53971;SDS011;40530;53.062;6.078;2023-09-19T02:15:44;14.43;;;2.85;;
53971;SDS011;40530;53.062;6.078;2023-09-19T02:18:10;12.13;;;2.50;;
53971;SDS011;40530;53.062;6.078;2023-09-19T02:20:37;6.40;;;1.70;;
53971;SDS011;40530;53.062;6.078;2023-09-19T02:23:03;14.48;;;2.30;;
53971;SDS011;40530;53.062;6.078;2023-09-19T02:25:29;8.25;;;1.75;;
53971;SDS011;40530;53.062;6.078;2023-09-19T02:27:56;8.15;;;1.70;;
53971;SDS011;40530;53.062;6.078;2023-09-19T02:30:24;8.05;;;1.80;;
53971;SDS011;40530;53.062;6.078;2023-09-19T02:32:51;11.05;;;1.80;;
53971;SDS011;40530;53.062;6.078;2023-09-19T02:35:17;9.95;;;1.90;;
53971;SDS011;40530;53.062;6.078;2023-09-19T02:37:46;12.60;;;2.53;;
53971;SDS011;40530;53.062;6.078;2023-09-19T02:40:12;9.48;;;1.92;;
53971;SDS011;40530;53.062;6.078;2023-09-19T02:42:44;11.80;;;2.42;;
53971;SDS011;40530;53.062;6.078;2023-09-19T02:45:12;11.48;;;2.10;;
53971;SDS011;40530;53.062;6.078;2023-09-19T02:47:39;14.50;;;2.22;;
53971;SDS011;40530;53.062;6.078;2023-09-19T02:50:06;12.00;;;2.05;;
53971;SDS011;40530;53.062;6.078;2023-09-19T02:52:33;8.48;;;1.65;;
53971;SDS011;40530;53.062;6.078;2023-09-19T02:54:59;8.93;;;1.50;;
53971;SDS011;40530;53.062;6.078;2023-09-19T02:57:26;7.60;;;1.73;;
53971;SDS011;40530;53.062;6.078;2023-09-19T02:59:52;7.07;;;1.90;;
53971;SDS011;40530;53.062;6.078;2023-09-19T03:02:19;11.60;;;2.63;;
53971;SDS011;40530;53.062;6.078;2023-09-19T03:04:49;9.43;;;1.70;;
53971;SDS011;40530;53.062;6.078;2023-09-19T03:07:16;8.52;;;1.65;;
53971;SDS011;40530;53.062;6.078;2023-09-19T03:09:42;9.38;;;1.58;;
53971;SDS011;40530;53.062;6.078;2023-09-19T03:12:09;10.80;;;1.70;;
53971;SDS011;40530;53.062;6.078;2023-09-19T03:14:36;12.45;;;1.92;;
53971;SDS011;40530;53.062;6.078;2023-09-19T03:17:02;4.63;;;1.45;;
53971;SDS011;40530;53.062;6.078;2023-09-19T03:19:30;10.77;;;1.75;;
53971;SDS011;40530;53.062;6.078;2023-09-19T03:21:58;10.52;;;1.63;;
53971;SDS011;40530;53.062;6.078;2023-09-19T03:24:24;17.30;;;1.58;;
53971;SDS011;40530;53.062;6.078;2023-09-19T03:26:51;8.88;;;1.65;;
53971;SDS011;40530;53.062;6.078;2023-09-19T03:29:17;9.40;;;1.95;;
53971;SDS011;40530;53.062;6.078;2023-09-19T03:31:43;9.68;;;1.88;;
53971;SDS011;40530;53.062;6.078;2023-09-19T03:34:10;8.40;;;1.90;;
53971;SDS011;40530;53.062;6.078;2023-09-19T03:36:36;9.95;;;1.60;;
53971;SDS011;40530;53.062;6.078;2023-09-19T03:39:02;11.48;;;2.03;;
53971;SDS011;40530;53.062;6.078;2023-09-19T03:41:31;13.88;;;2.40;;
53971;SDS011;40530;53.062;6.078;2023-09-19T03:43:58;14.25;;;2.38;;
53971;SDS011;40530;53.062;6.078;2023-09-19T03:46:24;14.27;;;2.83;;
53971;SDS011;40530;53.062;6.078;2023-09-19T03:48:50;21.55;;;9.02;;
53971;SDS011;40530;53.062;6.078;2023-09-19T03:51:16;10.75;;;2.75;;
53971;SDS011;40530;53.062;6.078;2023-09-19T03:53:42;10.32;;;1.67;;
53971;SDS011;40530;53.062;6.078;2023-09-19T03:56:08;13.65;;;2.63;;
53971;SDS011;40530;53.062;6.078;2023-09-19T03:58:35;6.70;;;1.83;;
53971;SDS011;40530;53.062;6.078;2023-09-19T04:01:04;16.15;;;2.20;;
53971;SDS011;40530;53.062;6.078;2023-09-19T04:03:31;8.95;;;1.90;;
53971;SDS011;40530;53.062;6.078;2023-09-19T04:06:11;7.82;;;1.80;;
53971;SDS011;40530;53.062;6.078;2023-09-19T04:08:38;12.45;;;2.75;;
53971;SDS011;40530;53.062;6.078;2023-09-19T04:11:04;8.07;;;1.90;;
53971;SDS011;40530;53.062;6.078;2023-09-19T04:13:30;11.13;;;3.30;;
53971;SDS011;40530;53.062;6.078;2023-09-19T04:15:56;14.80;;;2.22;;
53971;SDS011;40530;53.062;6.078;2023-09-19T04:18:22;7.65;;;2.30;;
53971;SDS011;40530;53.062;6.078;2023-09-19T04:20:51;19.23;;;7.65;;
53971;SDS011;40530;53.062;6.078;2023-09-19T04:23:17;13.90;;;4.30;;
53971;SDS011;40530;53.062;6.078;2023-09-19T04:25:47;10.70;;;2.10;;
53971;SDS011;40530;53.062;6.078;2023-09-19T04:28:13;9.57;;;2.00;;
53971;SDS011;40530;53.062;6.078;2023-09-19T04:30:40;11.02;;;1.77;;
53971;SDS011;40530;53.062;6.078;2023-09-19T04:33:06;9.02;;;1.80;;
53971;SDS011;40530;53.062;6.078;2023-09-19T04:35:33;10.80;;;1.70;;
53971;SDS011;40530;53.062;6.078;2023-09-19T04:37:59;12.13;;;2.53;;
53971;SDS011;40530;53.062;6.078;2023-09-19T04:40:25;7.15;;;1.88;;
53971;SDS011;40530;53.062;6.078;2023-09-19T04:42:57;10.77;;;3.30;;
53971;SDS011;40530;53.062;6.078;2023-09-19T04:45:24;9.80;;;1.95;;
53971;SDS011;40530;53.062;6.078;2023-09-19T04:47:51;16.65;;;2.50;;
53971;SDS011;40530;53.062;6.078;2023-09-19T04:50:18;11.85;;;1.85;;
53971;SDS011;40530;53.062;6.078;2023-09-19T04:52:44;10.23;;;1.88;;
53971;SDS011;40530;53.062;6.078;2023-09-19T04:55:13;10.48;;;2.00;;
53971;SDS011;40530;53.062;6.078;2023-09-19T05:00:10;11.85;;;2.22;;
53971;SDS011;40530;53.062;6.078;2023-09-19T05:02:38;7.80;;;1.88;;
53971;SDS011;40530;53.062;6.078;2023-09-19T05:05:05;11.75;;;1.90;;
53971;SDS011;40530;53.062;6.078;2023-09-19T05:07:31;17.42;;;2.95;;
53971;SDS011;40530;53.062;6.078;2023-09-19T05:09:59;14.05;;;2.33;;
53971;SDS011;40530;53.062;6.078;2023-09-19T05:12:28;16.08;;;2.22;;
53971;SDS011;40530;53.062;6.078;2023-09-19T05:14:54;11.25;;;1.88;;
53971;SDS011;40530;53.062;6.078;2023-09-19T05:17:20;17.38;;;2.75;;
53971;SDS011;40530;53.062;6.078;2023-09-19T05:19:46;9.45;;;1.75;;
53971;SDS011;40530;53.062;6.078;2023-09-19T05:22:13;14.60;;;2.47;;
53971;SDS011;40530;53.062;6.078;2023-09-19T05:24:39;17.45;;;3.38;;
53971;SDS011;40530;53.062;6.078;2023-09-19T05:27:05;11.43;;;2.20;;
53971;SDS011;40530;53.062;6.078;2023-09-19T05:29:32;9.23;;;1.90;;
53971;SDS011;40530;53.062;6.078;2023-09-19T05:31:58;7.75;;;1.92;;
53971;SDS011;40530;53.062;6.078;2023-09-19T05:34:24;12.93;;;3.33;;
53971;SDS011;40530;53.062;6.078;2023-09-19T05:36:56;11.80;;;2.63;;
53971;SDS011;40530;53.062;6.078;2023-09-19T05:39:22;15.05;;;3.55;;
53971;SDS011;40530;53.062;6.078;2023-09-19T05:41:48;14.15;;;2.92;;
53971;SDS011;40530;53.062;6.078;2023-09-19T05:44:14;10.45;;;2.13;;
53971;SDS011;40530;53.062;6.078;2023-09-19T05:46:40;12.57;;;2.83;;
53971;SDS011;40530;53.062;6.078;2023-09-19T05:49:06;19.08;;;3.53;;
53971;SDS011;40530;53.062;6.078;2023-09-19T05:51:32;7.80;;;1.90;;
53971;SDS011;40530;53.062;6.078;2023-09-19T05:53:58;10.18;;;1.83;;
53971;SDS011;40530;53.062;6.078;2023-09-19T05:56:24;8.35;;;1.60;;
53971;SDS011;40530;53.062;6.078;2023-09-19T05:58:50;13.02;;;2.08;;
53971;SDS011;40530;53.062;6.078;2023-09-19T06:01:17;17.10;;;2.72;;
53971;SDS011;40530;53.062;6.078;2023-09-19T06:03:43;8.57;;;2.45;;
53971;SDS011;40530;53.062;6.078;2023-09-19T06:06:09;7.97;;;1.50;;
53971;SDS011;40530;53.062;6.078;2023-09-19T06:08:36;12.10;;;2.65;;
53971;SDS011;40530;53.062;6.078;2023-09-19T06:11:05;16.60;;;2.83;;
53971;SDS011;40530;53.062;6.078;2023-09-19T06:13:32;14.77;;;2.25;;
53971;SDS011;40530;53.062;6.078;2023-09-19T06:15:58;11.85;;;2.58;;
53971;SDS011;40530;53.062;6.078;2023-09-19T06:18:29;13.60;;;2.20;;
53971;SDS011;40530;53.062;6.078;2023-09-19T06:20:58;13.57;;;2.33;;
53971;SDS011;40530;53.062;6.078;2023-09-19T06:23:24;11.30;;;1.55;;
53971;SDS011;40530;53.062;6.078;2023-09-19T06:25:52;12.52;;;3.10;;
53971;SDS011;40530;53.062;6.078;2023-09-19T06:28:18;9.15;;;2.28;;
53971;SDS011;40530;53.062;6.078;2023-09-19T06:30:49;11.95;;;2.85;;
53971;SDS011;40530;53.062;6.078;2023-09-19T06:33:15;26.58;;;10.85;;
53971;SDS011;40530;53.062;6.078;2023-09-19T06:35:43;11.10;;;2.40;;
53971;SDS011;40530;53.062;6.078;2023-09-19T06:38:09;14.02;;;2.33;;
53971;SDS011;40530;53.062;6.078;2023-09-19T06:40:38;21.15;;;2.03;;
53971;SDS011;40530;53.062;6.078;2023-09-19T06:43:05;11.18;;;2.53;;
53971;SDS011;40530;53.062;6.078;2023-09-19T06:45:31;11.93;;;2.33;;
53971;SDS011;40530;53.062;6.078;2023-09-19T06:47:57;13.82;;;1.95;;
53971;SDS011;40530;53.062;6.078;2023-09-19T06:50:25;41.20;;;3.63;;
53971;SDS011;40530;53.062;6.078;2023-09-19T06:52:52;7.93;;;1.85;;
53971;SDS011;40530;53.062;6.078;2023-09-19T06:55:20;8.68;;;2.22;;
53971;SDS011;40530;53.062;6.078;2023-09-19T06:57:48;10.00;;;3.30;;
53971;SDS011;40530;53.062;6.078;2023-09-19T07:00:15;11.73;;;1.92;;
53971;SDS011;40530;53.062;6.078;2023-09-19T07:03:00;10.35;;;2.67;;
53971;SDS011;40530;53.062;6.078;2023-09-19T07:05:29;11.93;;;2.42;;
53971;SDS011;40530;53.062;6.078;2023-09-19T07:07:56;17.00;;;3.63;;
53971;SDS011;40530;53.062;6.078;2023-09-19T07:10:24;21.33;;;6.93;;
53971;SDS011;40530;53.062;6.078;2023-09-19T07:12:57;15.82;;;3.47;;
53971;SDS011;40530;53.062;6.078;2023-09-19T07:17:50;11.48;;;2.55;;
53971;SDS011;40530;53.062;6.078;2023-09-19T07:20:16;9.13;;;2.10;;
53971;SDS011;40530;53.062;6.078;2023-09-19T07:22:43;10.82;;;2.80;;
53971;SDS011;40530;53.062;6.078;2023-09-19T07:25:09;35.17;;;2.80;;
53971;SDS011;40530;53.062;6.078;2023-09-19T07:27:37;10.40;;;2.65;;
53971;SDS011;40530;53.062;6.078;2023-09-19T07:30:03;9.57;;;1.88;;
53971;SDS011;40530;53.062;6.078;2023-09-19T07:32:31;6.45;;;1.67;;
53971;SDS011;40530;53.062;6.078;2023-09-19T07:34:57;11.82;;;1.92;;
53971;SDS011;40530;53.062;6.078;2023-09-19T07:37:23;15.73;;;2.20;;
53971;SDS011;40530;53.062;6.078;2023-09-19T07:39:50;14.85;;;2.97;;
53971;SDS011;40530;53.062;6.078;2023-09-19T07:42:16;9.68;;;1.95;;
53971;SDS011;40530;53.062;6.078;2023-09-19T07:44:43;14.13;;;2.17;;
53971;SDS011;40530;53.062;6.078;2023-09-19T07:47:13;13.13;;;2.60;;
53971;SDS011;40530;53.062;6.078;2023-09-19T07:49:39;16.85;;;2.05;;
53971;SDS011;40530;53.062;6.078;2023-09-19T07:52:07;13.30;;;4.13;;
53971;SDS011;40530;53.062;6.078;2023-09-19T07:54:33;18.42;;;4.57;;
53971;SDS011;40530;53.062;6.078;2023-09-19T07:57:00;14.88;;;3.28;;
53971;SDS011;40530;53.062;6.078;2023-09-19T07:59:26;10.75;;;1.88;;
53971;SDS011;40530;53.062;6.078;2023-09-19T08:01:53;9.20;;;2.97;;
53971;SDS011;40530;53.062;6.078;2023-09-19T08:04:19;8.35;;;2.40;;
53971;SDS011;40530;53.062;6.078;2023-09-19T08:06:45;9.43;;;1.98;;
53971;SDS011;40530;53.062;6.078;2023-09-19T08:09:11;10.07;;;2.22;;
53971;SDS011;40530;53.062;6.078;2023-09-19T08:11:42;14.90;;;1.80;;
53971;SDS011;40530;53.062;6.078;2023-09-19T08:14:08;12.15;;;2.40;;
53971;SDS011;40530;53.062;6.078;2023-09-19T08:16:39;12.65;;;2.72;;
53971;SDS011;40530;53.062;6.078;2023-09-19T08:19:05;6.88;;;2.72;;
53971;SDS011;40530;53.062;6.078;2023-09-19T08:21:31;10.93;;;2.20;;
53971;SDS011;40530;53.062;6.078;2023-09-19T08:23:57;13.52;;;2.35;;
53971;SDS011;40530;53.062;6.078;2023-09-19T08:26:23;9.68;;;2.40;;
53971;SDS011;40530;53.062;6.078;2023-09-19T08:28:49;12.23;;;2.75;;
53971;SDS011;40530;53.062;6.078;2023-09-19T08:31:16;10.82;;;2.95;;
53971;SDS011;40530;53.062;6.078;2023-09-19T08:33:43;12.65;;;2.25;;
53971;SDS011;40530;53.062;6.078;2023-09-19T08:36:14;19.23;;;3.97;;
53971;SDS011;40530;53.062;6.078;2023-09-19T08:38:40;8.00;;;2.33;;
53971;SDS011;40530;53.062;6.078;2023-09-19T08:41:07;10.48;;;2.40;;
53971;SDS011;40530;53.062;6.078;2023-09-19T08:43:33;13.55;;;2.80;;
53971;SDS011;40530;53.062;6.078;2023-09-19T08:46:18;11.52;;;2.53;;
53971;SDS011;40530;53.062;6.078;2023-09-19T08:48:45;20.83;;;2.30;;
53971;SDS011;40530;53.062;6.078;2023-09-19T08:51:26;12.95;;;2.45;;
53971;SDS011;40530;53.062;6.078;2023-09-19T08:56:25;31.20;;;3.28;;
53971;SDS011;40530;53.062;6.078;2023-09-19T08:58:59;26.50;;;4.22;;
53971;SDS011;40530;53.062;6.078;2023-09-19T09:01:27;14.23;;;2.65;;
53971;SDS011;40530;53.062;6.078;2023-09-19T09:03:53;13.45;;;2.40;;
53971;SDS011;40530;53.062;6.078;2023-09-19T09:06:20;16.52;;;3.17;;
53971;SDS011;40530;53.062;6.078;2023-09-19T09:08:48;29.00;;;2.90;;
53971;SDS011;40530;53.062;6.078;2023-09-19T09:11:14;17.30;;;3.22;;
53971;SDS011;40530;53.062;6.078;2023-09-19T09:13:42;9.82;;;3.17;;
53971;SDS011;40530;53.062;6.078;2023-09-19T09:16:09;18.92;;;2.50;;
53971;SDS011;40530;53.062;6.078;2023-09-19T09:18:36;16.42;;;3.17;;
53971;SDS011;40530;53.062;6.078;2023-09-19T09:21:02;17.05;;;4.00;;
53971;SDS011;40530;53.062;6.078;2023-09-19T09:23:31;11.93;;;2.35;;
53971;SDS011;40530;53.062;6.078;2023-09-19T09:25:58;13.70;;;2.67;;
53971;SDS011;40530;53.062;6.078;2023-09-19T09:28:28;24.10;;;10.15;;
53971;SDS011;40530;53.062;6.078;2023-09-19T09:30:55;16.30;;;5.32;;
53971;SDS011;40530;53.062;6.078;2023-09-19T09:33:23;28.23;;;12.40;;
53971;SDS011;40530;53.062;6.078;2023-09-19T09:35:56;13.93;;;4.65;;
53971;SDS011;40530;53.062;6.078;2023-09-19T09:38:23;12.55;;;2.80;;
53971;SDS011;40530;53.062;6.078;2023-09-19T09:40:53;15.23;;;3.10;;
53971;SDS011;40530;53.062;6.078;2023-09-19T09:46:08;204.20;;;15.95;;
53971;SDS011;40530;53.062;6.078;2023-09-19T09:51:45;217.52;;;15.10;;
53971;SDS011;40530;53.062;6.078;2023-09-19T09:54:31;175.63;;;14.70;;
53971;SDS011;40530;53.062;6.078;2023-09-19T09:59:54;56.58;;;6.15;;
53971;SDS011;40530;53.062;6.078;2023-09-19T10:04:58;131.35;;;12.35;;
53971;SDS011;40530;53.062;6.078;2023-09-19T10:07:46;98.47;;;7.38;;
53971;SDS011;40530;53.062;6.078;2023-09-19T10:10:14;74.93;;;11.15;;
53971;SDS011;40530;53.062;6.078;2023-09-19T10:12:46;117.78;;;19.52;;
53971;SDS011;40530;53.062;6.078;2023-09-19T10:15:17;92.32;;;18.90;;
53971;SDS011;40530;53.062;6.078;2023-09-19T10:17:46;75.68;;;11.07;;
53971;SDS011;40530;53.062;6.078;2023-09-19T10:20:13;52.58;;;7.72;;
53971;SDS011;40530;53.062;6.078;2023-09-19T10:22:57;200.27;;;19.42;;
53971;SDS011;40530;53.062;6.078;2023-09-19T10:25:28;178.80;;;17.30;;
53971;SDS011;40530;53.062;6.078;2023-09-19T10:27:54;57.70;;;7.57;;
53971;SDS011;40530;53.062;6.078;2023-09-19T10:30:22;25.50;;;5.22;;
53971;SDS011;40530;53.062;6.078;2023-09-19T10:33:02;15.65;;;3.03;;
53971;SDS011;40530;53.062;6.078;2023-09-19T10:35:28;19.98;;;3.92;;
53971;SDS011;40530;53.062;6.078;2023-09-19T10:38:00;15.23;;;3.38;;
53971;SDS011;40530;53.062;6.078;2023-09-19T10:40:27;14.95;;;2.67;;
53971;SDS011;40530;53.062;6.078;2023-09-19T10:43:03;11.57;;;2.50;;
53971;SDS011;40530;53.062;6.078;2023-09-19T10:45:30;18.35;;;3.65;;
53971;SDS011;40530;53.062;6.078;2023-09-19T10:47:57;13.02;;;3.42;;
53971;SDS011;40530;53.062;6.078;2023-09-19T10:50:23;15.80;;;3.38;;
53971;SDS011;40530;53.062;6.078;2023-09-19T10:52:50;16.83;;;3.10;;
53971;SDS011;40530;53.062;6.078;2023-09-19T10:55:24;15.48;;;3.45;;
53971;SDS011;40530;53.062;6.078;2023-09-19T10:57:53;14.20;;;3.47;;
53971;SDS011;40530;53.062;6.078;2023-09-19T11:03:20;17.60;;;2.58;;
53971;SDS011;40530;53.062;6.078;2023-09-19T11:06:03;18.85;;;3.05;;
53971;SDS011;40530;53.062;6.078;2023-09-19T11:08:58;11.25;;;2.88;;
53971;SDS011;40530;53.062;6.078;2023-09-19T11:11:56;23.60;;;4.30;;
53971;SDS011;40530;53.062;6.078;2023-09-19T11:21:57;22.33;;;3.47;;
53971;SDS011;40530;53.062;6.078;2023-09-19T11:24:27;12.52;;;2.75;;
53971;SDS011;40530;53.062;6.078;2023-09-19T11:27:12;12.25;;;2.55;;
53971;SDS011;40530;53.062;6.078;2023-09-19T11:29:39;19.95;;;3.20;;
53971;SDS011;40530;53.062;6.078;2023-09-19T11:32:05;14.13;;;2.67;;
53971;SDS011;40530;53.062;6.078;2023-09-19T11:34:41;14.15;;;2.25;;
53971;SDS011;40530;53.062;6.078;2023-09-19T11:47:57;74.78;;;7.10;;
53971;SDS011;40530;53.062;6.078;2023-09-19T11:50:25;88.38;;;10.38;;
53971;SDS011;40530;53.062;6.078;2023-09-19T11:52:51;22.85;;;4.20;;
53971;SDS011;40530;53.062;6.078;2023-09-19T11:55:18;27.02;;;3.95;;
53971;SDS011;40530;53.062;6.078;2023-09-19T11:57:48;135.07;;;13.10;;
53971;SDS011;40530;53.062;6.078;2023-09-19T12:00:25;134.13;;;12.63;;
53971;SDS011;40530;53.062;6.078;2023-09-19T12:02:52;90.80;;;8.90;;
53971;SDS011;40530;53.062;6.078;2023-09-19T12:05:30;40.10;;;4.32;;
53971;SDS011;40530;53.062;6.078;2023-09-19T12:07:58;238.85;;;14.75;;
53971;SDS011;40530;53.062;6.078;2023-09-19T12:10:25;53.25;;;5.85;;
53971;SDS011;40530;53.062;6.078;2023-09-19T12:12:51;31.40;;;4.10;;
53971;SDS011;40530;53.062;6.078;2023-09-19T12:15:24;24.95;;;3.72;;
53971;SDS011;40530;53.062;6.078;2023-09-19T12:17:59;30.15;;;3.75;;
53971;SDS011;40530;53.062;6.078;2023-09-19T12:20:26;48.60;;;4.82;;
53971;SDS011;40530;53.062;6.078;2023-09-19T12:23:12;87.68;;;7.63;;
53971;SDS011;40530;53.062;6.078;2023-09-19T12:25:42;72.25;;;4.65;;
53971;SDS011;40530;53.062;6.078;2023-09-19T12:28:12;55.97;;;4.47;;
53971;SDS011;40530;53.062;6.078;2023-09-19T12:30:39;29.90;;;2.92;;
53971;SDS011;40530;53.062;6.078;2023-09-19T12:33:14;26.15;;;3.35;;
53971;SDS011;40530;53.062;6.078;2023-09-19T12:35:40;28.42;;;4.10;;
53971;SDS011;40530;53.062;6.078;2023-09-19T12:38:10;17.67;;;2.47;;
53971;SDS011;40530;53.062;6.078;2023-09-19T12:40:37;10.25;;;2.17;;
53971;SDS011;40530;53.062;6.078;2023-09-19T12:43:03;32.28;;;3.35;;
53971;SDS011;40530;53.062;6.078;2023-09-19T12:45:31;32.72;;;4.03;;
53971;SDS011;40530;53.062;6.078;2023-09-19T12:53:30;15.23;;;3.40;;
53971;SDS011;40530;53.062;6.078;2023-09-19T12:55:58;18.58;;;3.10;;
53971;SDS011;40530;53.062;6.078;2023-09-19T12:58:25;42.50;;;3.63;;
53971;SDS011;40530;53.062;6.078;2023-09-19T13:00:51;93.90;;;4.82;;
53971;SDS011;40530;53.062;6.078;2023-09-19T13:05:51;45.30;;;4.43;;
53971;SDS011;40530;53.062;6.078;2023-09-19T13:08:28;28.88;;;3.13;;
53971;SDS011;40530;53.062;6.078;2023-09-19T13:11:00;26.45;;;4.40;;
53971;SDS011;40530;53.062;6.078;2023-09-19T13:13:26;29.23;;;2.55;;
53971;SDS011;40530;53.062;6.078;2023-09-19T13:15:53;24.67;;;2.38;;
53971;SDS011;40530;53.062;6.078;2023-09-19T13:18:19;11.82;;;1.83;;
53971;SDS011;40530;53.062;6.078;2023-09-19T13:21:04;10.18;;;2.25;;
53971;SDS011;40530;53.062;6.078;2023-09-19T13:23:31;11.25;;;1.92;;
53971;SDS011;40530;53.062;6.078;2023-09-19T13:25:57;20.58;;;2.28;;
53971;SDS011;40530;53.062;6.078;2023-09-19T13:28:23;17.60;;;2.97;;
53971;SDS011;40530;53.062;6.078;2023-09-19T13:30:49;22.55;;;4.95;;
53971;SDS011;40530;53.062;6.078;2023-09-19T13:33:15;15.82;;;3.38;;
53971;SDS011;40530;53.062;6.078;2023-09-19T13:35:46;17.90;;;2.75;;
53971;SDS011;40530;53.062;6.078;2023-09-19T13:38:13;11.55;;;1.92;;
53971;SDS011;40530;53.062;6.078;2023-09-19T13:40:39;11.07;;;2.22;;
53971;SDS011;40530;53.062;6.078;2023-09-19T13:43:07;39.65;;;4.80;;
53971;SDS011;40530;53.062;6.078;2023-09-19T13:45:33;23.80;;;2.95;;
53971;SDS011;40530;53.062;6.078;2023-09-19T13:47:59;11.35;;;2.70;;
53971;SDS011;40530;53.062;6.078;2023-09-19T13:50:25;34.33;;;5.55;;
53971;SDS011;40530;53.062;6.078;2023-09-19T13:52:54;17.50;;;2.78;;
53971;SDS011;40530;53.062;6.078;2023-09-19T13:55:20;35.47;;;3.42;;
53971;SDS011;40530;53.062;6.078;2023-09-19T13:57:47;73.60;;;5.90;;
53971;SDS011;40530;53.062;6.078;2023-09-19T14:00:15;43.63;;;4.50;;
53971;SDS011;40530;53.062;6.078;2023-09-19T14:02:41;44.78;;;4.68;;
53971;SDS011;40530;53.062;6.078;2023-09-19T14:05:12;17.55;;;2.67;;
53971;SDS011;40530;53.062;6.078;2023-09-19T14:07:40;13.13;;;1.88;;
53971;SDS011;40530;53.062;6.078;2023-09-19T14:10:06;18.98;;;2.67;;
53971;SDS011;40530;53.062;6.078;2023-09-19T14:12:38;22.38;;;2.70;;
53971;SDS011;40530;53.062;6.078;2023-09-19T14:15:08;18.05;;;2.17;;
53971;SDS011;40530;53.062;6.078;2023-09-19T14:17:35;11.35;;;1.95;;
53971;SDS011;40530;53.062;6.078;2023-09-19T14:20:01;15.60;;;3.10;;
53971;SDS011;40530;53.062;6.078;2023-09-19T14:22:27;11.07;;;1.42;;
53971;SDS011;40530;53.062;6.078;2023-09-19T14:24:53;73.80;;;5.78;;
53971;SDS011;40530;53.062;6.078;2023-09-19T14:27:19;16.67;;;1.98;;
53971;SDS011;40530;53.062;6.078;2023-09-19T14:29:45;11.68;;;2.20;;
53971;SDS011;40530;53.062;6.078;2023-09-19T14:32:13;15.98;;;2.50;;
53971;SDS011;40530;53.062;6.078;2023-09-19T14:34:39;10.85;;;1.90;;
53971;SDS011;40530;53.062;6.078;2023-09-19T14:37:08;9.38;;;2.03;;
53971;SDS011;40530;53.062;6.078;2023-09-19T14:39:36;7.82;;;1.80;;
53971;SDS011;40530;53.062;6.078;2023-09-19T14:42:05;11.05;;;1.55;;
53971;SDS011;40530;53.062;6.078;2023-09-19T14:44:34;12.82;;;2.13;;
53971;SDS011;40530;53.062;6.078;2023-09-19T14:47:00;12.90;;;1.70;;
53971;SDS011;40530;53.062;6.078;2023-09-19T14:49:26;5.57;;;1.52;;
53971;SDS011;40530;53.062;6.078;2023-09-19T14:51:52;7.13;;;1.42;;
53971;SDS011;40530;53.062;6.078;2023-09-19T14:54:18;7.70;;;1.67;;
53971;SDS011;40530;53.062;6.078;2023-09-19T14:56:44;14.68;;;1.90;;
53971;SDS011;40530;53.062;6.078;2023-09-19T14:59:10;6.50;;;1.70;;
53971;SDS011;40530;53.062;6.078;2023-09-19T15:01:37;8.35;;;1.27;;
53971;SDS011;40530;53.062;6.078;2023-09-19T15:04:04;11.90;;;1.50;;
53971;SDS011;40530;53.062;6.078;2023-09-19T15:06:30;10.35;;;2.28;;
53971;SDS011;40530;53.062;6.078;2023-09-19T15:08:56;6.22;;;1.17;;
53971;SDS011;40530;53.062;6.078;2023-09-19T15:11:22;9.15;;;1.45;;
53971;SDS011;40530;53.062;6.078;2023-09-19T15:13:51;8.75;;;1.70;;
53971;SDS011;40530;53.062;6.078;2023-09-19T15:16:17;9.68;;;1.85;;
53971;SDS011;40530;53.062;6.078;2023-09-19T15:18:44;8.10;;;1.60;;
53971;SDS011;40530;53.062;6.078;2023-09-19T15:21:12;8.38;;;2.00;;
53971;SDS011;40530;53.062;6.078;2023-09-19T15:23:40;4.47;;;1.30;;
53971;SDS011;40530;53.062;6.078;2023-09-19T15:26:15;6.88;;;1.83;;
53971;SDS011;40530;53.062;6.078;2023-09-19T15:28:45;6.18;;;2.13;;
53971;SDS011;40530;53.062;6.078;2023-09-19T15:31:13;4.97;;;1.45;;
53971;SDS011;40530;53.062;6.078;2023-09-19T15:33:39;7.70;;;2.35;;
53971;SDS011;40530;53.062;6.078;2023-09-19T15:36:06;9.75;;;1.60;;
53971;SDS011;40530;53.062;6.078;2023-09-19T15:38:50;8.52;;;1.85;;
53971;SDS011;40530;53.062;6.078;2023-09-19T15:41:21;11.80;;;2.22;;
53971;SDS011;40530;53.062;6.078;2023-09-19T15:43:47;7.32;;;1.90;;